Time;durP1;ratioP1;P1;durP2;ratioP2;P2;SDS_P1;SDS_P2;PMS_P1;PMS_P2;Temp;Humidity;BMP_temperature;BMP_pressure;BME280_temperature;BME280_humidity;BME280_pressure;Samples;Min_cycle;Max_cycle;Signal;HPM_P1;HPM_P2
2023/05/05 00:01:19;;;;;;;11.73;1.50;;;;;;;;;;5040631;28;20041;-63
2023/05/05 00:03:46;;;;;;;7.07;1.48;;;;;;;;;;5038668;28;20052;-65
2023/05/05 00:06:13;;;;;;;9.77;1.60;;;;;;;;;;5039885;28;20037;-66
2023/05/05 00:08:41;;;;;;;5.65;1.30;;;;;;;;;;5039274;28;20048;-65
2023/05/05 00:11:08;;;;;;;8.55;1.25;;;;;;;;;;5046602;28;20037;-61
2023/05/05 00:13:34;;;;;;;8.63;1.02;;;;;;;;;;5057664;28;20041;-61
2023/05/05 00:16:01;;;;;;;12.32;1.40;;;;;;;;;;5058529;28;20044;-61
2023/05/05 00:18:28;;;;;;;9.07;1.63;;;;;;;;;;5041478;28;20040;-61
2023/05/05 00:20:55;;;;;;;9.45;1.52;;;;;;;;;;5041184;28;20584;-60
2023/05/05 00:23:21;;;;;;;6.18;1.30;;;;;;;;;;5044010;28;20097;-60
2023/05/05 00:25:49;;;;;;;6.70;1.20;;;;;;;;;;5048407;28;20041;-59
2023/05/05 00:28:16;;;;;;;11.48;1.48;;;;;;;;;;5048356;28;20044;-59
2023/05/05 00:30:43;;;;;;;9.93;1.45;;;;;;;;;;5044571;28;20068;-60
2023/05/05 00:33:10;;;;;;;12.15;1.25;;;;;;;;;;5048004;28;20040;-60
2023/05/05 00:35:36;;;;;;;8.13;1.35;;;;;;;;;;5062283;28;20126;-62
2023/05/05 00:38:03;;;;;;;9.45;1.08;;;;;;;;;;5045981;28;20440;-60
2023/05/05 00:40:31;;;;;;;5.35;1.10;;;;;;;;;;5052115;28;20052;-62
2023/05/05 00:43:01;;;;;;;8.82;1.45;;;;;;;;;;5046438;28;20525;-62
2023/05/05 00:45:28;;;;;;;7.07;1.42;;;;;;;;;;5046225;27;20043;-61
2023/05/05 00:47:56;;;;;;;5.90;1.08;;;;;;;;;;5057746;28;20044;-59
2023/05/05 00:50:32;;;;;;;7.03;1.30;;;;;;;;;;5044752;28;20044;-62
2023/05/05 00:53:03;;;;;;;7.10;1.08;;;;;;;;;;5042278;28;20037;-63
2023/05/05 00:55:30;;;;;;;8.20;1.23;;;;;;;;;;5031413;28;20053;-60
2023/05/05 00:57:57;;;;;;;9.07;1.30;;;;;;;;;;5047528;28;20049;-62
2023/05/05 01:00:24;;;;;;;4.47;1.20;;;;;;;;;;5045995;28;20127;-63
2023/05/05 01:02:51;;;;;;;11.07;1.35;;;;;;;;;;5049571;28;20080;-62
2023/05/05 01:05:19;;;;;;;7.15;1.10;;;;;;;;;;5050398;28;20364;-60
2023/05/05 01:07:53;;;;;;;7.68;1.38;;;;;;;;;;5044163;28;20049;-59
2023/05/05 01:10:29;;;;;;;4.82;1.33;;;;;;;;;;5045258;28;20513;-60
2023/05/05 01:12:58;;;;;;;7.70;1.58;;;;;;;;;;5046785;28;20068;-60
2023/05/05 01:15:33;;;;;;;6.55;1.15;;;;;;;;;;5046178;28;20227;-59
2023/05/05 01:18:03;;;;;;;6.65;1.10;;;;;;;;;;5043594;28;20446;-62
2023/05/05 01:20:41;;;;;;;12.90;1.63;;;;;;;;;;5043877;28;20039;-58
2023/05/05 01:23:09;;;;;;;4.93;1.17;;;;;;;;;;5045760;28;20041;-60
2023/05/05 01:25:56;;;;;;;6.30;1.02;;;;;;;;;;5080669;28;20115;-59
2023/05/05 01:28:38;;;;;;;6.72;1.20;;;;;;;;;;5077148;28;20182;-62
2023/05/05 01:31:23;;;;;;;3.53;0.93;;;;;;;;;;5078915;28;20067;-60
2023/05/05 01:33:54;;;;;;;9.65;1.58;;;;;;;;;;5079935;28;20122;-60
2023/05/05 01:36:27;;;;;;;7.25;1.17;;;;;;;;;;5078680;28;20103;-66
2023/05/05 01:38:56;;;;;;;5.32;1.27;;;;;;;;;;5081469;27;20082;-59
2023/05/05 01:41:30;;;;;;;7.93;1.65;;;;;;;;;;5033433;28;20036;-59
2023/05/05 01:43:58;;;;;;;8.57;1.27;;;;;;;;;;5082267;28;20068;-60
2023/05/05 01:46:25;;;;;;;7.75;1.25;;;;;;;;;;5082332;28;20032;-62
2023/05/05 01:48:52;;;;;;;4.43;1.38;;;;;;;;;;5079161;28;20438;-61
2023/05/05 01:51:20;;;;;;;7.53;1.10;;;;;;;;;;5049578;28;20032;-63
2023/05/05 01:54:07;;;;;;;8.70;1.35;;;;;;;;;;5025679;28;21348;-63
2023/05/05 01:56:36;;;;;;;9.52;1.38;;;;;;;;;;5025301;28;20461;-61
2023/05/05 01:59:03;;;;;;;13.50;1.30;;;;;;;;;;5026204;28;20056;-60
2023/05/05 02:01:30;;;;;;;3.97;1.10;;;;;;;;;;5027764;28;20097;-60
2023/05/05 02:03:57;;;;;;;5.57;1.13;;;;;;;;;;5011593;28;20139;-60
2023/05/05 02:06:25;;;;;;;7.38;1.10;;;;;;;;;;5005098;28;20038;-61
2023/05/05 02:09:12;;;;;;;9.65;1.40;;;;;;;;;;5005991;28;20558;-60
2023/05/05 02:11:59;;;;;;;8.68;1.40;;;;;;;;;;5001257;28;20052;-61
2023/05/05 02:14:27;;;;;;;6.50;1.40;;;;;;;;;;4986152;28;20080;-59
2023/05/05 02:16:55;;;;;;;10.85;1.20;;;;;;;;;;5001263;28;20554;-62
2023/05/05 02:19:23;;;;;;;7.45;1.17;;;;;;;;;;5001070;28;20917;-58
2023/05/05 02:21:50;;;;;;;14.32;4.25;;;;;;;;;;5000272;28;20111;-61
2023/05/05 02:24:17;;;;;;;11.57;1.60;;;;;;;;;;5002310;28;20049;-61
2023/05/05 02:26:45;;;;;;;5.65;1.40;;;;;;;;;;5000506;28;20569;-62
2023/05/05 02:29:20;;;;;;;6.30;1.52;;;;;;;;;;4985516;28;20099;-60
2023/05/05 02:31:51;;;;;;;10.80;1.80;;;;;;;;;;5006526;28;20141;-59
2023/05/05 02:34:21;;;;;;;6.70;1.83;;;;;;;;;;5011942;28;20064;-60
2023/05/05 02:36:50;;;;;;;9.38;1.73;;;;;;;;;;4982995;28;20104;-60
2023/05/05 02:39:46;;;;;;;9.38;1.55;;;;;;;;;;4999634;28;20087;-62
2023/05/05 02:42:14;;;;;;;6.82;1.52;;;;;;;;;;5001355;28;20141;-59
2023/05/05 02:44:41;;;;;;;6.50;1.48;;;;;;;;;;4985622;28;20105;-60
2023/05/05 02:47:08;;;;;;;14.00;3.42;;;;;;;;;;5029941;28;20509;-60
2023/05/05 02:49:35;;;;;;;8.05;1.63;;;;;;;;;;5039999;27;20497;-61
2023/05/05 02:52:02;;;;;;;6.32;1.60;;;;;;;;;;5042133;28;20505;-60
2023/05/05 02:54:29;;;;;;;6.75;1.48;;;;;;;;;;5039428;28;20048;-59
2023/05/05 02:56:57;;;;;;;11.10;1.52;;;;;;;;;;5043186;28;20033;-61
2023/05/05 02:59:46;;;;;;;11.32;1.63;;;;;;;;;;5043833;27;20532;-61
2023/05/05 03:02:24;;;;;;;10.27;1.58;;;;;;;;;;5045240;28;20048;-59
2023/05/05 03:04:56;;;;;;;6.03;1.25;;;;;;;;;;5044614;28;20045;-59
2023/05/05 03:07:27;;;;;;;10.45;1.75;;;;;;;;;;5058531;28;20049;-58
2023/05/05 03:10:08;;;;;;;11.18;1.90;;;;;;;;;;5044199;28;20059;-59
2023/05/05 03:12:37;;;;;;;5.68;1.50;;;;;;;;;;5042512;28;20163;-64
2023/05/05 03:15:05;;;;;;;9.95;1.55;;;;;;;;;;5044156;28;20056;-58
2023/05/05 03:17:32;;;;;;;8.85;1.40;;;;;;;;;;5044475;28;20043;-59
2023/05/05 03:20:00;;;;;;;6.25;1.65;;;;;;;;;;5043139;28;20045;-62
2023/05/05 03:22:27;;;;;;;7.47;1.33;;;;;;;;;;5044151;28;20673;-59
2023/05/05 03:24:53;;;;;;;6.20;1.40;;;;;;;;;;5045573;27;20112;-60
2023/05/05 03:27:20;;;;;;;7.60;1.30;;;;;;;;;;5043415;28;20105;-60
2023/05/05 03:29:47;;;;;;;10.07;1.30;;;;;;;;;;5044337;28;20033;-60
2023/05/05 03:32:13;;;;;;;12.15;1.80;;;;;;;;;;5041478;28;20086;-59
2023/05/05 03:34:40;;;;;;;8.10;1.55;;;;;;;;;;5058647;27;20187;-67
2023/05/05 03:37:07;;;;;;;8.07;1.73;;;;;;;;;;5043370;28;20098;-57
2023/05/05 03:39:33;;;;;;;9.70;1.60;;;;;;;;;;5042255;27;20052;-60
2023/05/05 03:42:01;;;;;;;8.55;1.40;;;;;;;;;;5042474;28;20045;-61
2023/05/05 03:44:28;;;;;;;8.70;2.85;;;;;;;;;;5034581;27;20037;-58
2023/05/05 03:46:55;;;;;;;12.43;3.33;;;;;;;;;;5055175;28;20045;-60
2023/05/05 03:49:21;;;;;;;10.10;2.45;;;;;;;;;;5041407;28;20036;-62
2023/05/05 03:51:48;;;;;;;8.15;1.85;;;;;;;;;;5039959;28;20892;-64
2023/05/05 03:54:16;;;;;;;10.75;1.63;;;;;;;;;;5041414;27;20102;-63
2023/05/05 03:56:43;;;;;;;8.25;1.50;;;;;;;;;;5045299;28;21163;-63
2023/05/05 03:59:09;;;;;;;11.50;2.30;;;;;;;;;;5046517;28;20945;-63
2023/05/05 04:01:36;;;;;;;8.10;1.48;;;;;;;;;;5045435;28;20041;-61
2023/05/05 04:04:03;;;;;;;10.25;1.90;;;;;;;;;;5061108;28;20079;-61
2023/05/05 04:06:30;;;;;;;14.00;1.92;;;;;;;;;;5043012;28;20047;-61
2023/05/05 04:08:57;;;;;;;6.70;1.40;;;;;;;;;;5052761;28;20055;-59
2023/05/05 04:11:25;;;;;;;13.05;1.70;;;;;;;;;;5045504;28;20375;-59
2023/05/05 04:13:53;;;;;;;13.32;1.60;;;;;;;;;;5046019;27;20436;-61
2023/05/05 04:16:20;;;;;;;12.45;1.65;;;;;;;;;;5043060;28;20041;-59
2023/05/05 04:18:47;;;;;;;10.20;1.60;;;;;;;;;;5044899;28;20406;-60
2023/05/05 04:21:14;;;;;;;8.25;1.70;;;;;;;;;;5042494;28;20073;-60
2023/05/05 04:23:40;;;;;;;12.10;2.00;;;;;;;;;;5041730;28;22757;-61
2023/05/05 04:26:07;;;;;;;8.85;1.80;;;;;;;;;;5044136;28;20123;-60
2023/05/05 04:28:34;;;;;;;10.75;1.52;;;;;;;;;;5044237;28;20071;-62
2023/05/05 04:31:03;;;;;;;6.18;1.50;;;;;;;;;;5046749;28;20472;-60
2023/05/05 04:33:30;;;;;;;7.28;1.60;;;;;;;;;;5036880;28;20076;-60
2023/05/05 04:35:57;;;;;;;6.85;1.13;;;;;;;;;;5044229;28;20056;-61
2023/05/05 04:38:43;;;;;;;10.43;1.85;;;;;;;;;;5034281;28;20047;-60
2023/05/05 04:41:10;;;;;;;7.88;1.50;;;;;;;;;;5045274;28;20041;-58
2023/05/05 04:43:37;;;;;;;3.53;1.45;;;;;;;;;;5044139;28;20040;-60
2023/05/05 04:46:03;;;;;;;8.75;1.50;;;;;;;;;;5045067;28;20041;-61
2023/05/05 04:48:30;;;;;;;12.63;1.52;;;;;;;;;;5042276;28;20072;-61
2023/05/05 04:50:57;;;;;;;8.13;1.70;;;;;;;;;;5044624;28;20048;-60
2023/05/05 04:53:24;;;;;;;11.77;1.80;;;;;;;;;;5044754;28;20397;-60
2023/05/05 04:55:51;;;;;;;7.25;1.65;;;;;;;;;;5037547;28;20064;-58
2023/05/05 04:58:18;;;;;;;11.60;1.38;;;;;;;;;;5045062;28;20560;-61
2023/05/05 05:00:44;;;;;;;8.13;1.55;;;;;;;;;;5044993;28;20436;-61
2023/05/05 05:03:11;;;;;;;17.73;1.35;;;;;;;;;;5044875;28;20055;-58
2023/05/05 05:05:39;;;;;;;11.10;1.60;;;;;;;;;;5033642;28;20048;-59
2023/05/05 05:08:06;;;;;;;11.80;1.35;;;;;;;;;;5043859;28;20052;-60
2023/05/05 05:10:32;;;;;;;12.40;1.75;;;;;;;;;;5045213;28;20089;-59
2023/05/05 05:12:59;;;;;;;8.82;1.60;;;;;;;;;;5044416;28;20179;-58
2023/05/05 05:15:27;;;;;;;7.18;1.70;;;;;;;;;;5044748;28;20758;-60
2023/05/05 05:17:53;;;;;;;7.50;1.30;;;;;;;;;;5045491;28;20060;-62
2023/05/05 05:20:20;;;;;;;8.30;1.40;;;;;;;;;;5045656;28;20762;-59
2023/05/05 05:22:47;;;;;;;3.72;1.02;;;;;;;;;;5043147;28;20063;-60
2023/05/05 05:25:13;;;;;;;4.82;1.55;;;;;;;;;;5044220;28;20047;-62
2023/05/05 05:27:40;;;;;;;6.32;1.42;;;;;;;;;;5043347;28;20048;-59
2023/05/05 05:30:07;;;;;;;10.68;1.73;;;;;;;;;;5039860;28;20051;-60
2023/05/05 05:32:35;;;;;;;5.28;1.35;;;;;;;;;;5044674;28;20052;-62
2023/05/05 05:35:02;;;;;;;5.30;1.65;;;;;;;;;;5045781;28;20922;-61
2023/05/05 05:37:30;;;;;;;9.50;1.70;;;;;;;;;;5041317;28;20097;-59
2023/05/05 05:39:56;;;;;;;6.20;1.48;;;;;;;;;;5046350;28;20098;-60
2023/05/05 05:42:23;;;;;;;4.53;1.10;;;;;;;;;;5046410;28;20037;-61
2023/05/05 05:44:50;;;;;;;9.73;1.33;;;;;;;;;;5042581;28;20091;-59
2023/05/05 05:47:16;;;;;;;6.80;1.10;;;;;;;;;;5044089;28;20041;-60
2023/05/05 05:49:43;;;;;;;5.40;1.20;;;;;;;;;;5042251;28;20044;-60
2023/05/05 05:52:10;;;;;;;5.03;1.13;;;;;;;;;;5042813;28;20037;-62
2023/05/05 05:54:36;;;;;;;6.10;1.23;;;;;;;;;;5043309;28;20901;-63
2023/05/05 05:57:05;;;;;;;6.43;1.27;;;;;;;;;;5043390;28;20044;-60
2023/05/05 05:59:32;;;;;;;4.40;1.10;;;;;;;;;;5043523;28;20463;-59
2023/05/05 06:02:00;;;;;;;8.63;1.25;;;;;;;;;;5043391;28;20150;-60
2023/05/05 06:04:27;;;;;;;5.03;1.10;;;;;;;;;;5041152;28;20079;-63
2023/05/05 06:06:54;;;;;;;5.88;1.38;;;;;;;;;;5048459;28;20036;-61
2023/05/05 06:09:40;;;;;;;6.93;1.50;;;;;;;;;;5079130;28;20045;-62
2023/05/05 06:12:07;;;;;;;5.30;1.17;;;;;;;;;;5081149;28;20041;-61
2023/05/05 06:14:34;;;;;;;7.03;1.35;;;;;;;;;;5079044;28;20128;-62
2023/05/05 06:17:00;;;;;;;5.15;1.20;;;;;;;;;;5059044;28;20063;-60
2023/05/05 06:19:27;;;;;;;7.10;1.40;;;;;;;;;;5051640;28;20041;-59
2023/05/05 06:21:54;;;;;;;6.65;1.40;;;;;;;;;;5058574;28;20083;-62
2023/05/05 06:24:20;;;;;;;6.28;1.23;;;;;;;;;;5058898;28;20041;-63
2023/05/05 06:26:47;;;;;;;7.32;1.13;;;;;;;;;;5058611;28;20040;-56
2023/05/05 06:29:14;;;;;;;12.23;1.70;;;;;;;;;;5034935;28;20032;-62
2023/05/05 06:31:40;;;;;;;7.88;1.60;;;;;;;;;;5056309;28;20055;-58
2023/05/05 06:34:07;;;;;;;5.88;1.30;;;;;;;;;;5058472;28;20389;-60
2023/05/05 06:36:34;;;;;;;12.43;1.73;;;;;;;;;;5056258;28;20040;-60
2023/05/05 06:39:01;;;;;;;6.18;1.27;;;;;;;;;;5058236;28;20079;-60
2023/05/05 06:41:27;;;;;;;4.20;0.88;;;;;;;;;;5044911;28;20044;-59
2023/05/05 06:44:14;;;;;;;5.63;1.33;;;;;;;;;;5058365;28;20654;-59
2023/05/05 06:46:42;;;;;;;4.43;1.25;;;;;;;;;;5058020;28;20063;-60
2023/05/05 06:49:09;;;;;;;8.27;1.20;;;;;;;;;;5058347;28;20369;-63
2023/05/05 06:51:36;;;;;;;5.25;1.10;;;;;;;;;;5057958;28;20039;-60
2023/05/05 06:54:06;;;;;;;7.07;1.23;;;;;;;;;;5059492;28;20040;-62
2023/05/05 06:56:32;;;;;;;6.78;1.30;;;;;;;;;;5041344;28;20040;-59
2023/05/05 06:58:59;;;;;;;8.82;1.50;;;;;;;;;;5057733;28;20124;-59
2023/05/05 07:01:26;;;;;;;5.65;1.10;;;;;;;;;;5057352;28;20045;-59
2023/05/05 07:03:53;;;;;;;12.20;1.60;;;;;;;;;;5058676;28;20048;-60
2023/05/05 07:06:19;;;;;;;4.45;1.35;;;;;;;;;;5048197;28;20420;-57
2023/05/05 07:08:46;;;;;;;4.68;1.27;;;;;;;;;;5031926;28;20113;-60
2023/05/05 07:11:13;;;;;;;6.30;1.25;;;;;;;;;;5059793;28;20043;-60
2023/05/05 07:13:40;;;;;;;4.65;1.30;;;;;;;;;;5058032;28;20056;-59
2023/05/05 07:16:06;;;;;;;6.15;1.30;;;;;;;;;;5045428;28;20546;-57
2023/05/05 07:18:34;;;;;;;4.57;1.02;;;;;;;;;;5042860;28;20124;-59
2023/05/05 07:21:05;;;;;;;4.95;1.10;;;;;;;;;;5047620;28;20033;-60
2023/05/05 07:23:32;;;;;;;5.18;1.13;;;;;;;;;;5046034;28;20036;-62
2023/05/05 07:25:59;;;;;;;6.38;1.10;;;;;;;;;;5044771;28;20383;-59
2023/05/05 07:28:25;;;;;;;4.57;1.00;;;;;;;;;;5049244;28;20043;-62
2023/05/05 07:30:52;;;;;;;4.72;1.10;;;;;;;;;;5046859;28;20041;-59
2023/05/05 07:33:19;;;;;;;3.08;1.00;;;;;;;;;;5049454;28;20531;-58
2023/05/05 07:35:45;;;;;;;5.53;1.17;;;;;;;;;;5044307;28;20049;-61
2023/05/05 07:38:12;;;;;;;7.15;1.30;;;;;;;;;;5046128;28;20041;-59
2023/05/05 07:40:39;;;;;;;7.75;1.42;;;;;;;;;;5051416;28;20082;-59
2023/05/05 07:43:05;;;;;;;11.90;1.17;;;;;;;;;;5045770;28;20036;-57
2023/05/05 07:45:32;;;;;;;5.63;1.20;;;;;;;;;;5045339;28;20370;-58
2023/05/05 07:47:59;;;;;;;4.47;1.15;;;;;;;;;;5047186;28;20040;-59
2023/05/05 07:50:26;;;;;;;7.47;1.20;;;;;;;;;;5046602;28;20056;-63
2023/05/05 07:52:52;;;;;;;6.50;1.38;;;;;;;;;;5063244;28;20064;-60
2023/05/05 07:55:19;;;;;;;7.63;1.20;;;;;;;;;;5046559;28;20083;-57
2023/05/05 07:57:46;;;;;;;5.07;1.38;;;;;;;;;;5045561;28;20040;-61
2023/05/05 08:00:13;;;;;;;6.13;1.40;;;;;;;;;;5046001;28;20040;-60
2023/05/05 08:02:40;;;;;;;5.85;1.05;;;;;;;;;;5042218;28;20032;-59
2023/05/05 08:05:07;;;;;;;3.05;1.00;;;;;;;;;;5044675;28;20063;-60
2023/05/05 08:07:35;;;;;;;4.55;1.00;;;;;;;;;;5044109;28;20072;-56
2023/05/05 08:10:02;;;;;;;5.75;1.27;;;;;;;;;;5046304;28;20079;-59
2023/05/05 08:12:28;;;;;;;5.25;1.00;;;;;;;;;;5044513;27;20087;-60
2023/05/05 08:14:55;;;;;;;3.50;1.10;;;;;;;;;;5044850;28;20082;-61
2023/05/05 08:17:24;;;;;;;5.68;1.27;;;;;;;;;;5043369;28;20112;-56
2023/05/05 08:19:54;;;;;;;5.22;1.08;;;;;;;;;;5045587;28;20057;-58
2023/05/05 08:22:24;;;;;;;6.88;1.50;;;;;;;;;;5045545;27;20029;-60
2023/05/05 08:24:50;;;;;;;6.43;1.25;;;;;;;;;;5043998;28;20485;-58
2023/05/05 08:27:17;;;;;;;5.32;1.27;;;;;;;;;;5044188;28;20143;-58
2023/05/05 08:29:44;;;;;;;5.95;1.40;;;;;;;;;;5042724;28;20055;-58
2023/05/05 08:32:10;;;;;;;9.52;1.50;;;;;;;;;;5043422;27;20501;-59
2023/05/05 08:34:37;;;;;;;5.32;1.50;;;;;;;;;;5044112;28;20145;-59
2023/05/05 08:37:03;;;;;;;6.65;1.20;;;;;;;;;;5044637;28;20037;-59
2023/05/05 08:39:30;;;;;;;6.88;1.33;;;;;;;;;;5044206;28;20052;-59
2023/05/05 08:41:57;;;;;;;8.82;1.48;;;;;;;;;;5043298;28;20048;-58
2023/05/05 08:44:25;;;;;;;5.55;1.10;;;;;;;;;;5043302;28;20045;-60
2023/05/05 08:46:52;;;;;;;5.15;1.20;;;;;;;;;;5039114;28;20057;-59
2023/05/05 08:49:20;;;;;;;9.27;1.55;;;;;;;;;;5042603;28;20137;-67
2023/05/05 08:51:47;;;;;;;6.97;1.55;;;;;;;;;;5044091;28;20040;-58
2023/05/05 08:54:18;;;;;;;4.70;1.27;;;;;;;;;;5040777;28;20053;-57
2023/05/05 08:56:46;;;;;;;5.50;1.05;;;;;;;;;;5050875;27;20060;-57
2023/05/05 08:59:13;;;;;;;4.40;1.13;;;;;;;;;;5045066;28;20032;-62
2023/05/05 09:01:41;;;;;;;6.13;1.35;;;;;;;;;;5043831;28;20456;-59
2023/05/05 09:04:09;;;;;;;5.88;1.33;;;;;;;;;;5044040;28;20056;-58
2023/05/05 09:06:36;;;;;;;8.38;1.30;;;;;;;;;;5043142;28;20048;-58
2023/05/05 09:09:03;;;;;;;5.32;1.40;;;;;;;;;;5043782;28;20045;-59
2023/05/05 09:11:30;;;;;;;6.18;1.27;;;;;;;;;;5043638;28;20049;-59
2023/05/05 09:13:58;;;;;;;3.10;1.20;;;;;;;;;;5045130;28;20056;-57
2023/05/05 09:16:25;;;;;;;6.97;1.40;;;;;;;;;;5041958;28;20047;-59
2023/05/05 09:19:01;;;;;;;6.85;1.48;;;;;;;;;;5045449;28;20504;-59
2023/05/05 09:21:28;;;;;;;8.40;1.73;;;;;;;;;;5043131;28;20042;-60
2023/05/05 09:24:07;;;;;;;5.50;1.55;;;;;;;;;;5044225;28;20428;-61
2023/05/05 09:26:34;;;;;;;4.53;1.10;;;;;;;;;;5042880;28;20068;-58
2023/05/05 09:29:02;;;;;;;11.25;1.40;;;;;;;;;;5043252;28;20084;-60
2023/05/05 09:31:32;;;;;;;7.20;1.42;;;;;;;;;;5040618;27;20056;-61
2023/05/05 09:34:03;;;;;;;7.47;1.40;;;;;;;;;;5044007;28;20037;-58
2023/05/05 09:36:42;;;;;;;8.23;1.40;;;;;;;;;;5043551;28;20388;-58
2023/05/05 09:39:09;;;;;;;7.57;1.40;;;;;;;;;;5046706;28;20032;-60
2023/05/05 09:41:41;;;;;;;13.40;1.58;;;;;;;;;;5045429;27;20033;-60
2023/05/05 09:44:09;;;;;;;7.78;1.50;;;;;;;;;;5043433;28;20056;-57
2023/05/05 09:46:36;;;;;;;7.30;1.50;;;;;;;;;;5041880;28;20029;-60
2023/05/05 09:49:17;;;;;;;7.20;1.85;;;;;;;;;;5043271;28;20041;-61
2023/05/05 09:51:44;;;;;;;7.63;1.40;;;;;;;;;;5029263;28;20033;-60
2023/05/05 09:54:33;;;;;;;9.68;1.30;;;;;;;;;;5042703;28;20047;-59
2023/05/05 09:57:00;;;;;;;4.75;1.40;;;;;;;;;;5041689;27;20163;-59
2023/05/05 09:59:26;;;;;;;5.88;1.48;;;;;;;;;;5042173;28;20044;-59
2023/05/05 10:01:53;;;;;;;5.47;1.45;;;;;;;;;;5041772;28;20048;-60
2023/05/05 10:04:27;;;;;;;5.97;1.58;;;;;;;;;;5057486;28;20089;-66
2023/05/05 10:06:57;;;;;;;5.20;1.20;;;;;;;;;;5041113;28;20069;-61
2023/05/05 10:09:25;;;;;;;4.35;1.27;;;;;;;;;;5046594;28;20111;-62
2023/05/05 10:11:52;;;;;;;6.15;1.45;;;;;;;;;;5045039;28;20051;-62
2023/05/05 10:14:19;;;;;;;6.07;1.38;;;;;;;;;;5045098;28;20485;-59
2023/05/05 10:16:48;;;;;;;6.85;1.55;;;;;;;;;;5047230;28;20067;-59
2023/05/05 10:19:15;;;;;;;14.20;1.95;;;;;;;;;;5058256;28;20048;-61
2023/05/05 10:21:46;;;;;;;8.55;1.40;;;;;;;;;;5045471;28;20090;-57
2023/05/05 10:24:17;;;;;;;6.47;1.50;;;;;;;;;;5045968;28;20033;-56
2023/05/05 10:26:46;;;;;;;8.60;1.80;;;;;;;;;;5044369;28;20131;-57
2023/05/05 10:29:32;;;;;;;5.68;1.42;;;;;;;;;;5044278;28;20041;-62
2023/05/05 10:32:05;;;;;;;5.60;1.48;;;;;;;;;;5043331;27;20060;-58
2023/05/05 10:34:49;;;;;;;5.75;1.60;;;;;;;;;;5042887;28;20056;-57
2023/05/05 10:37:17;;;;;;;5.75;1.60;;;;;;;;;;5043799;28;20182;-59
2023/05/05 10:39:45;;;;;;;8.93;1.58;;;;;;;;;;5044302;28;20159;-58
2023/05/05 10:42:13;;;;;;;5.00;1.40;;;;;;;;;;5044200;28;20029;-60
2023/05/05 10:44:59;;;;;;;12.88;2.00;;;;;;;;;;5060344;28;20085;-60
2023/05/05 10:47:27;;;;;;;89.50;8.65;;;;;;;;;;5058777;28;20076;-60
2023/05/05 10:50:04;;;;;;;25.70;2.78;;;;;;;;;;5055853;28;20698;-62
2023/05/05 10:52:40;;;;;;;13.65;2.20;;;;;;;;;;5057748;28;20067;-59
2023/05/05 10:55:25;;;;;;;11.57;2.10;;;;;;;;;;5058931;28;20573;-61
2023/05/05 10:57:53;;;;;;;11.68;2.05;;;;;;;;;;5059563;28;20070;-61
2023/05/05 11:00:37;;;;;;;6.50;1.75;;;;;;;;;;5033195;28;20037;-59
2023/05/05 11:03:16;;;;;;;6.35;1.67;;;;;;;;;;5058180;28;20036;-59
2023/05/05 11:06:01;;;;;;;8.40;1.70;;;;;;;;;;5055895;28;20067;-60
2023/05/05 11:08:28;;;;;;;14.00;2.45;;;;;;;;;;5058072;28;20168;-59
2023/05/05 11:10:54;;;;;;;17.75;2.42;;;;;;;;;;5057103;28;20162;-62
2023/05/05 11:13:21;;;;;;;10.48;2.10;;;;;;;;;;5056108;28;20040;-61
2023/05/05 11:15:52;;;;;;;8.23;2.00;;;;;;;;;;5051000;28;20078;-59
2023/05/05 11:18:48;;;;;;;8.57;1.80;;;;;;;;;;5041844;28;20095;-60
2023/05/05 11:21:16;;;;;;;12.23;1.95;;;;;;;;;;5038486;28;20040;-58
2023/05/05 11:23:43;;;;;;;8.38;1.98;;;;;;;;;;5041107;28;20136;-57
2023/05/05 11:26:10;;;;;;;7.85;1.92;;;;;;;;;;5042170;28;20049;-59
2023/05/05 11:28:54;;;;;;;11.77;2.00;;;;;;;;;;5041787;28;20033;-59
2023/05/05 11:31:21;;;;;;;8.63;1.98;;;;;;;;;;5043583;28;20040;-59
2023/05/05 11:33:48;;;;;;;10.65;1.88;;;;;;;;;;5042651;28;20060;-61
2023/05/05 11:36:18;;;;;;;7.82;2.08;;;;;;;;;;5042721;28;20492;-56
2023/05/05 11:39:08;;;;;;;12.27;2.13;;;;;;;;;;5035690;28;20454;-61
2023/05/05 11:41:54;;;;;;;10.18;2.17;;;;;;;;;;5051212;27;20047;-58
2023/05/05 11:44:29;;;;;;;18.67;2.47;;;;;;;;;;5042812;28;20044;-58
2023/05/05 11:46:59;;;;;;;15.77;2.20;;;;;;;;;;5041871;28;20048;-59
2023/05/05 11:49:33;;;;;;;14.43;2.63;;;;;;;;;;5042241;28;20060;-58
2023/05/05 11:52:01;;;;;;;13.13;2.47;;;;;;;;;;5040714;27;20048;-58
2023/05/05 11:54:28;;;;;;;5.97;2.13;;;;;;;;;;5041040;28;20634;-60
2023/05/05 11:56:56;;;;;;;11.15;2.85;;;;;;;;;;5042448;28;20398;-58
2023/05/05 11:59:22;;;;;;;14.93;2.97;;;;;;;;;;5040757;28;20036;-60
2023/05/05 12:01:51;;;;;;;18.50;2.60;;;;;;;;;;5041497;28;20125;-60
2023/05/05 12:04:18;;;;;;;22.52;3.38;;;;;;;;;;5043256;28;20481;-60
2023/05/05 12:06:45;;;;;;;20.30;3.28;;;;;;;;;;5041602;27;20053;-59
2023/05/05 12:09:19;;;;;;;16.90;2.67;;;;;;;;;;5042079;28;20068;-58
2023/05/05 12:12:03;;;;;;;9.52;2.65;;;;;;;;;;5043188;28;20037;-60
2023/05/05 12:14:30;;;;;;;29.10;3.47;;;;;;;;;;4999229;28;20045;-59
2023/05/05 12:17:00;;;;;;;29.30;3.15;;;;;;;;;;5007799;28;20468;-59
2023/05/05 12:19:32;;;;;;;27.75;3.55;;;;;;;;;;5022073;28;20048;-63
2023/05/05 12:22:04;;;;;;;30.67;4.30;;;;;;;;;;5022001;28;20086;-64
2023/05/05 12:24:31;;;;;;;30.63;4.23;;;;;;;;;;5022029;28;20056;-61
2023/05/05 12:27:17;;;;;;;18.27;3.65;;;;;;;;;;5021643;28;20049;-57
2023/05/05 12:29:44;;;;;;;33.10;4.10;;;;;;;;;;5021183;28;20585;-58
2023/05/05 12:32:27;;;;;;;34.72;6.63;;;;;;;;;;5020576;28;20164;-62
2023/05/05 12:34:56;;;;;;;47.53;6.00;;;;;;;;;;5022064;28;20042;-60
2023/05/05 12:37:23;;;;;;;33.78;4.22;;;;;;;;;;5021289;28;20049;-56
2023/05/05 12:39:51;;;;;;;18.17;3.45;;;;;;;;;;5021251;28;20038;-61
2023/05/05 12:42:18;;;;;;;17.73;3.35;;;;;;;;;;4985453;28;20066;-56
2023/05/05 12:44:45;;;;;;;12.55;2.95;;;;;;;;;;5026663;28;20481;-59
2023/05/05 12:47:32;;;;;;;17.00;3.40;;;;;;;;;;5042974;28;20048;-58
2023/05/05 12:50:02;;;;;;;9.80;1.83;;;;;;;;;;5043028;28;20095;-58
2023/05/05 12:52:41;;;;;;;13.52;2.40;;;;;;;;;;5040383;28;20032;-59
2023/05/05 12:55:08;;;;;;;26.23;3.45;;;;;;;;;;5041532;28;20048;-57
2023/05/05 12:57:35;;;;;;;9.75;2.15;;;;;;;;;;5040123;28;20037;-58
2023/05/05 13:00:13;;;;;;;11.90;2.28;;;;;;;;;;5044069;28;20033;-57
2023/05/05 13:02:39;;;;;;;10.35;2.08;;;;;;;;;;5041229;28;20071;-55
2023/05/05 13:05:07;;;;;;;17.77;2.83;;;;;;;;;;5043551;28;20045;-58
2023/05/05 13:07:33;;;;;;;20.30;2.85;;;;;;;;;;5042612;28;20040;-57
2023/05/05 13:10:09;;;;;;;11.18;2.03;;;;;;;;;;5044152;28;21776;-57
2023/05/05 13:12:36;;;;;;;9.13;1.88;;;;;;;;;;5043006;28;20032;-60
2023/05/05 13:15:03;;;;;;;20.38;2.47;;;;;;;;;;5042325;28;20055;-57
2023/05/05 13:17:29;;;;;;;11.55;2.60;;;;;;;;;;5043885;28;20029;-58
2023/05/05 13:19:56;;;;;;;10.75;2.40;;;;;;;;;;5042066;28;20043;-58
2023/05/05 13:22:23;;;;;;;6.93;2.08;;;;;;;;;;5043543;28;20130;-57
2023/05/05 13:24:49;;;;;;;9.15;1.90;;;;;;;;;;5043708;28;20451;-57
2023/05/05 13:27:16;;;;;;;14.80;2.13;;;;;;;;;;5043566;28;20102;-58
2023/05/05 13:29:43;;;;;;;13.20;1.92;;;;;;;;;;5043781;28;20041;-60
2023/05/05 13:32:09;;;;;;;5.18;1.52;;;;;;;;;;5043980;28;20052;-57
2023/05/05 13:34:37;;;;;;;14.02;1.80;;;;;;;;;;5043804;28;20476;-59
2023/05/05 13:37:04;;;;;;;15.30;2.28;;;;;;;;;;5043679;28;20036;-57
2023/05/05 13:39:31;;;;;;;21.75;2.15;;;;;;;;;;5045851;28;20063;-59
2023/05/05 13:41:57;;;;;;;14.75;1.85;;;;;;;;;;5044889;28;20151;-58
2023/05/05 13:44:24;;;;;;;16.80;2.33;;;;;;;;;;5044372;28;20037;-60
2023/05/05 13:46:51;;;;;;;13.93;2.03;;;;;;;;;;5044345;28;20067;-58
2023/05/05 13:49:18;;;;;;;18.90;2.35;;;;;;;;;;5042662;28;20059;-55
2023/05/05 13:51:45;;;;;;;6.32;1.40;;;;;;;;;;5043297;27;20045;-58
2023/05/05 13:54:12;;;;;;;6.18;1.30;;;;;;;;;;5042434;28;20072;-56
2023/05/05 13:56:39;;;;;;;9.32;1.70;;;;;;;;;;5048178;27;20039;-58
2023/05/05 13:59:06;;;;;;;11.38;2.08;;;;;;;;;;5043743;28;20446;-59
2023/05/05 14:01:32;;;;;;;38.38;4.35;;;;;;;;;;5043442;27;20037;-58
2023/05/05 14:03:59;;;;;;;18.35;2.17;;;;;;;;;;5043990;28;20114;-59
2023/05/05 14:06:26;;;;;;;6.35;1.42;;;;;;;;;;5040972;28;20117;-58
2023/05/05 14:08:53;;;;;;;14.00;1.85;;;;;;;;;;5057938;28;20036;-59
2023/05/05 14:11:20;;;;;;;14.13;1.77;;;;;;;;;;5044171;28;20036;-58
2023/05/05 14:13:46;;;;;;;6.90;1.10;;;;;;;;;;5039598;28;20549;-57
2023/05/05 14:16:13;;;;;;;10.40;1.63;;;;;;;;;;5043118;28;20143;-59
2023/05/05 14:18:40;;;;;;;12.60;2.00;;;;;;;;;;5042170;28;20581;-60
2023/05/05 14:21:07;;;;;;;14.07;2.10;;;;;;;;;;5043112;28;20130;-57
2023/05/05 14:23:34;;;;;;;9.68;1.50;;;;;;;;;;5040739;28;20037;-58
2023/05/05 14:26:01;;;;;;;9.02;1.50;;;;;;;;;;5042548;28;20907;-58
2023/05/05 14:28:28;;;;;;;16.95;1.60;;;;;;;;;;5042665;28;20061;-59
2023/05/05 14:30:54;;;;;;;18.88;2.28;;;;;;;;;;5044679;28;20041;-58
2023/05/05 14:33:21;;;;;;;9.43;1.50;;;;;;;;;;5040421;28;20059;-60
2023/05/05 14:35:48;;;;;;;16.20;2.05;;;;;;;;;;5042214;28;20055;-59
2023/05/05 14:38:15;;;;;;;14.10;1.65;;;;;;;;;;5045248;28;20047;-60
2023/05/05 14:40:41;;;;;;;6.28;1.50;;;;;;;;;;5044419;28;20041;-61
2023/05/05 14:43:08;;;;;;;7.72;1.70;;;;;;;;;;5048899;28;20373;-58
2023/05/05 14:45:35;;;;;;;6.15;1.45;;;;;;;;;;5044867;28;20508;-60
2023/05/05 14:48:02;;;;;;;7.03;1.42;;;;;;;;;;5045150;27;20440;-56
2023/05/05 14:50:28;;;;;;;9.52;1.75;;;;;;;;;;5043326;28;20048;-58